Clarkson Valley, Missouri
Current Conditions -  °F | °C
As of 3:54 PM on Wednesday 28 Jan 2015 (Local Time) from KSUS Reporting Station
Broken Clouds Broken Clouds  
Wind Chill: 12°   Ceiling: 25000
Heat Index: 12°   Visibility: 10mi
Dew Point: -1°   Wind: 14mph
Humidity: 41%   Direction: 150°SSE
Pressure: 29.96"   Gusts: 22mph
Location:  38.6517°N, 90.5361°W
Report Text: KSUS 282154Z 15012G19KT 10SM SCT150 BKN250 12/M01 A2996 RMK AO2 SLP151 T01171011
Loading
Personal Weather Stations






























Interactive Weather Map New forecast layout! Learn more

10-Day Weather Forecast

Advertisements
Track Severe Weather on mobile